Latest Weather Observations for Flinders Island Airport

IDT60801

Issued at 1:11 am EST Friday 23 April 2021 (issued every 10 minutes, with the page automatically refreshed every 10 minutes)

About weather observations | Map of weather stations | Latest weather observations for TAS | Other Formats
Station Details ID: 099005 Name: FLINDERS ISLAND AIRPORT Lat: -40.09 Lon: 148.00 Height: 9.0 m
Data from the previous 72 hours. | See also: Recent months at Flinders Island Airport
Date/Time
EST
Temp
°C
App
Temp
°C
Dew
Point
°C
Rel
Hum
%
Delta-T
°C
Wind Press
QNH
hPa
Press
MSL
hPa
Rain since
9am
mm
Dir  Spd
km/h
Gust
km/h
Spd
kts
Gust
kts
23/01:00am 13.6 4.6 8.7 72 2.5 WSW 46 57 25 31 1008.7 1008.7 4.0
23/12:30am 13.6 4.2 8.9 73 2.4 WSW 48 57 26 31 1008.6 1008.6 4.0
23/12:00am 13.9 5.5 9.5 75 2.3 WSW 44 57 24 31 1008.5 1008.5 4.0
 
Date/Time
EST
Temp
°C
App
Temp
°C
Dew
Point
°C
Rel
Hum
%
Delta-T
°C
Wind Press
QNH
hPa
Press
MSL
hPa
Rain since
9am
mm
Dir  Spd
km/h
Gust
km/h
Spd
kts
Gust
kts
22/11:30pm 13.7 5.3 9.7 77 2.1 W 44 59 24 32 1008.4 1008.4 4.0
22/11:00pm 13.5 4.0 9.7 78 2.0 WSW 50 63 27 34 1008.5 1008.5 4.0
22/10:45pm 13.6 4.2 10.2 80 1.8 WSW 50 69 27 37 1008.5 1008.5 4.0
22/10:30pm 13.7 5.4 9.9 78 2.0 W 44 56 24 30 1008.4 1008.4 4.0
22/10:00pm 13.8 3.8 9.3 74 2.3 WSW 52 63 28 34 1008.4 1008.4 4.0
22/09:30pm 13.9 4.4 9.7 76 2.2 WSW 50 63 27 34 1008.3 1008.3 4.0
22/09:00pm 13.8 4.2 9.5 75 2.2 W 50 61 27 33 1008.0 1008.0 4.0
22/08:52pm 13.9 7.2 11.1 83 1.5 W 37 56 20 30 1008.0 1008.0 4.0
22/08:30pm 13.5 6.9 11.2 86 1.2 W 37 52 20 28 1007.9 1007.9 4.0
22/08:00pm 13.8 4.4 10.0 78 2.0 WSW 50 69 27 37 1007.6 1007.6 4.0
22/07:58pm 13.9 5.2 9.9 77 2.1 WSW 46 67 25 36 1007.5 1007.5 4.0
22/07:30pm 13.0 5.9 12.1 94 0.5 W 41 50 22 27 1007.4 1007.4 4.0
22/07:23pm 12.8 5.4 12.5 98 0.2 W 43 54 23 29 1007.3 1007.3 4.0
22/07:00pm 12.9 6.3 12.7 99 0.1 W 39 61 21 33 1007.1 1007.1 3.6
22/06:51pm 12.8 5.3 12.6 99 0.1 W 44 63 24 34 1007.0 1007.0 3.6
22/06:30pm 13.0 3.7 11.7 92 0.7 W 52 65 28 35 1006.7 1006.7 2.4
22/06:29pm 13.2 4.3 11.8 91 0.7 W 50 65 27 35 1006.7 1006.7 2.4
22/06:00pm 14.7 6.6 9.9 73 2.5 W 43 57 23 31 1006.2 1006.2 2.0
22/05:45pm 14.7 5.9 9.7 72 2.6 WNW 46 65 25 35 1006.0 1006.0 2.0
22/05:30pm 14.7 6.3 9.7 72 2.6 W 44 59 24 32 1005.9 1005.9 2.0
22/05:10pm 14.5 7.1 9.9 74 2.4 W 39 57 21 31 1005.7 1005.7 2.0
22/05:00pm 14.5 5.2 9.3 71 2.7 W 48 61 26 33 1005.7 1005.7 2.0
22/04:30pm 14.8 6.4 9.8 72 2.6 W 44 57 24 31 1005.5 1005.5 2.0
22/04:12pm 14.4 7.3 11.0 80 1.8 W 39 57 21 31 1005.6 1005.6 2.0
22/04:00pm 13.9 6.1 11.1 83 1.5 W 43 57 23 31 1005.6 1005.6 2.0
22/03:42pm 14.6 5.9 9.8 73 2.5 WNW 46 65 25 35 1005.3 1005.3 2.0
22/03:30pm 14.9 6.6 9.9 72 2.6 WNW 44 56 24 30 1005.1 1005.1 2.0
22/03:00pm 15.1 6.5 9.0 67 3.1 W 44 57 24 31 1005.1 1005.1 2.0
22/02:31pm 14.7 5.2 8.2 65 3.3 W 48 67 26 36 1005.1 1005.1 2.0
22/02:30pm 14.7 4.8 8.4 66 3.2 W 50 67 27 36 1005.1 1005.1 2.0
22/02:10pm 14.4 4.9 9.8 74 2.4 W 50 70 27 38 1005.1 1005.1 2.0
22/02:00pm 15.4 6.0 10.0 70 2.8 W 50 61 27 33 1005.1 1005.1 2.0
22/01:52pm 15.0 6.7 9.4 69 2.9 W 43 61 23 33 1005.0 1005.0 2.0
22/01:30pm 14.4 4.0 10.6 78 2.0 W 56 70 30 38 1005.2 1005.2 2.0
22/01:00pm 15.5 5.7 8.7 64 3.5 W 50 61 27 33 1005.1 1005.1 2.0
22/12:30pm 15.5 6.3 9.4 67 3.1 W 48 59 26 32 1005.5 1005.5 2.0
22/12:18pm 15.2 5.7 8.4 64 3.4 W 48 67 26 36 1005.6 1005.6 2.0
22/12:00pm 15.4 6.1 9.3 67 3.2 W 48 61 26 33 1005.9 1005.9 2.0
22/11:30am 14.4 6.4 10.6 78 2.0 W 43 57 23 31 1006.0 1006.0 2.0
22/11:00am 14.8 7.5 11.6 81 1.7 W 41 57 22 31 1006.1 1006.1 2.0
22/10:39am 14.5 7.3 10.7 78 2.0 W 39 57 21 31 1006.2 1006.2 2.0
22/10:30am 14.6 8.1 10.4 76 2.2 W 35 50 19 27 1006.2 1006.2 2.0
22/10:00am 13.3 8.7 12.2 93 0.6 W 28 39 15 21 1006.5 1006.5 2.0
22/09:42am 12.9 8.0 12.7 99 0.1 W 30 37 16 20 1006.6 1006.6 2.0
22/09:38am 12.7 7.8 12.5 99 0.1 W 30 37 16 20 1006.5 1006.5 2.0
22/09:30am 12.6 7.1 12.4 99 0.1 W 33 48 18 26 1006.6 1006.6 2.0
22/09:19am 12.6 6.3 12.4 99 0.1 W 37 52 20 28 1006.7 1006.7 1.4
22/09:08am 13.5 5.4 11.9 90 0.9 WNW 46 76 25 41 1006.7 1006.7 0.2
22/09:03am 14.3 7.1 12.0 86 1.2 WNW 41 61 22 33 1006.5 1006.5 0.0
22/09:00am 14.5 7.7 11.8 84 1.5 WNW 39 54 21 29 1006.4 1006.4 1.0
22/08:47am 14.4 7.6 11.9 85 1.3 WNW 39 59 21 32 1006.5 1006.5 1.0
22/08:30am 14.4 7.5 11.6 83 1.5 WNW 39 56 21 30 1006.7 1006.7 1.0
22/08:00am 14.7 7.7 11.1 79 1.9 WNW 39 56 21 30 1006.8 1006.8 1.0
22/07:30am 14.3 7.2 10.9 80 1.8 WNW 39 56 21 30 1006.6 1006.6 1.0
22/07:08am 14.2 6.6 10.4 78 2.0 WNW 41 59 22 32 1006.5 1006.5 1.0
22/07:00am 14.2 6.1 10.6 79 1.9 WNW 44 59 24 32 1006.5 1006.5 1.0
22/06:30am 14.1 6.8 10.1 77 2.1 WNW 39 61 21 33 1006.5 1006.5 1.0
22/06:03am 13.6 6.9 11.0 84 1.4 WNW 37 56 20 30 1006.8 1006.8 0.8
22/06:00am 13.6 6.2 11.1 85 1.3 NW 41 56 22 30 1006.8 1006.8 0.8
22/05:30am 13.4 6.1 10.2 81 1.7 WNW 39 54 21 29 1007.0 1007.0 0.8
22/05:03am 13.4 6.9 10.4 82 1.6 NW 35 54 19 29 1007.1 1007.1 0.8
22/05:00am 13.4 6.5 10.4 82 1.6 NW 37 50 20 27 1007.0 1007.0 0.8
22/04:30am 13.1 6.5 9.9 81 1.6 NW 35 50 19 27 1007.3 1007.3 0.8
22/04:00am 13.0 5.7 10.2 83 1.4 NW 39 57 21 31 1007.7 1007.7 0.8
22/03:57am 13.0 5.6 10.0 82 1.5 NW 39 57 21 31 1007.7 1007.7 0.8
22/03:30am 12.8 5.8 10.0 83 1.4 NW 37 52 20 28 1007.8 1007.8 0.8
22/03:11am 12.4 6.4 10.8 90 0.8 NW 33 52 18 28 1008.1 1008.1 0.8
22/03:00am 12.2 6.4 10.8 91 0.7 NW 32 46 17 25 1008.2 1008.2 0.6
22/02:30am 12.3 5.6 10.9 91 0.7 WNW 37 54 20 29 1008.7 1008.7 0.6
22/02:25am 12.9 6.8 10.3 84 1.3 NW 33 54 18 29 1008.7 1008.7 0.4
22/02:00am 13.2 6.0 9.3 77 2.0 NW 37 50 20 27 1009.0 1009.0 0.4
22/01:44am 13.7 7.1 8.5 71 2.6 NW 33 52 18 28 1009.1 1009.1 0.4
22/01:30am 13.5 6.4 8.1 70 2.7 NW 35 50 19 27 1009.2 1009.2 0.4
22/01:00am 13.1 6.0 8.2 72 2.4 NW 35 50 19 27 1009.5 1009.5 0.4
22/12:30am 13.5 6.9 7.7 68 2.9 WNW 32 41 17 22 1009.8 1009.8 0.4
22/12:00am 13.4 6.7 7.4 67 2.9 WNW 32 44 17 24 1010.0 1010.0 0.4
 
Date/Time
EST
Temp
°C
App
Temp
°C
Dew
Point
°C
Rel
Hum
%
Delta-T
°C
Wind Press
QNH
hPa
Press
MSL
hPa
Rain since
9am
mm
Dir  Spd
km/h
Gust
km/h
Spd
kts
Gust
kts
21/11:30pm 13.1 6.4 7.5 69 2.7 WNW 32 43 17 23 1010.3 1010.3 0.4
21/11:00pm 13.3 7.6 8.2 71 2.5 WNW 28 43 15 23 1010.7 1010.7 0.4
21/10:30pm 13.1 7.3 8.0 71 2.5 WNW 28 35 15 19 1011.4 1011.4 0.4
21/10:00pm 12.6 6.4 7.9 73 2.3 WNW 30 41 16 22 1011.8 1011.8 0.4
21/09:30pm 12.4 5.9 8.3 76 2.0 WNW 32 46 17 25 1012.2 1012.2 0.4
21/09:00pm 11.6 5.8 9.3 86 1.2 NW 30 41 16 22 1012.4 1012.4 0.4
21/08:30pm 10.9 6.8 8.8 87 1.0 NW 20 28 11 15 1012.4 1012.4 0.2
21/08:00pm 11.4 5.2 9.3 87 1.1 WNW 32 46 17 25 1012.7 1012.7 0.2
21/07:30pm 11.0 5.5 9.1 88 0.9 WNW 28 46 15 25 1012.6 1012.6 0.2
21/07:22pm 11.8 6.0 7.9 77 1.9 W 28 46 15 25 1012.9 1012.9 0.2
21/07:00pm 12.3 5.2 5.7 64 3.1 WNW 32 39 17 21 1012.7 1012.7 0.0
21/06:30pm 12.8 5.2 4.0 55 4.0 WNW 33 46 18 25 1012.5 1012.5 0.0
21/06:00pm 12.5 5.6 4.7 59 3.6 WNW 30 46 16 25 1012.5 1012.5 0.0
21/05:30pm 11.8 6.4 6.5 70 2.5 W 24 33 13 18 1012.6 1012.6 0.0
21/05:14pm 12.0 4.9 6.3 68 2.7 W 33 50 18 27 1012.7 1012.7 0.0
21/05:10pm 12.5 6.3 6.3 66 2.9 WNW 28 48 15 26 1012.8 1012.8 0.0
21/05:00pm 12.4 6.5 5.8 64 3.1 W 26 33 14 18 1012.8 1012.8 0.0
21/04:30pm 12.5 5.7 5.0 60 3.5 WNW 30 37 16 20 1012.8 1012.8 0.0
21/04:00pm 12.7 7.5 3.4 53 4.1 WNW 20 30 11 16 1012.9 1012.9 0.0
21/03:30pm 12.6 5.9 3.6 54 4.0 WNW 28 37 15 20 1013.1 1013.1 0.0
21/03:00pm 12.8 6.2 4.0 55 4.0 W 28 35 15 19 1013.2 1013.2 0.0
21/02:30pm 12.7 6.3 3.1 52 4.2 WNW 26 35 14 19 1013.4 1013.4 0.0
21/02:00pm 13.8 7.7 4.7 54 4.2 W 26 32 14 17 1013.5 1013.5 0.0
21/01:30pm 13.6 7.3 3.9 52 4.4 W 26 33 14 18 1013.7 1013.7 0.0
21/01:00pm 13.6 7.0 4.2 53 4.3 W 28 37 15 20 1014.1 1014.1 0.0
21/12:30pm 12.8 6.1 3.7 54 4.1 W 28 33 15 18 1014.6 1014.6 0.0
21/12:00pm 13.3 6.6 3.9 53 4.3 W 28 33 15 18 1014.9 1014.9 0.0
21/11:30am 13.4 8.2 5.3 58 3.8 WSW 22 28 12 15 1015.3 1015.3 0.0
21/11:00am 13.3 7.6 4.7 56 4.0 W 24 30 13 16 1015.5 1015.5 0.0
21/10:30am 12.9 7.3 3.3 52 4.3 W 22 28 12 15 1015.5 1015.5 0.0
21/10:00am 12.7 8.2 4.2 56 3.8 W 17 26 9 14 1015.6 1015.6 0.0
21/09:30am 12.4 9.9 6.5 67 2.8 W 9 11 5 6 1015.6 1015.6 0.0
21/09:00am 11.9 9.7 6.4 69 2.6 NE 7 9 4 5 1015.6 1015.6 5.8
21/08:30am 8.9 6.9 8.8 99 0.0 NE 9 11 5 6 1015.4 1015.4 5.8
21/08:00am 6.0 3.0 5.9 99 0.0 NE 11 13 6 7 1015.3 1015.3 5.8
21/07:30am 4.0 0.6 3.9 99 0.0 NE 11 13 6 7 1015.1 1015.1 5.8
21/07:00am 2.5 -1.2 2.4 99 0.0 NE 11 13 6 7 1014.9 1014.9 5.8
21/06:30am 3.0 -1.0 2.9 99 0.0 NE 13 15 7 8 1014.7 1014.7 5.8
21/06:00am 3.3 -0.3 3.2 99 0.0 ESE 11 13 6 7 1014.6 1014.6 5.8
21/05:30am 2.7 -0.6 2.4 98 0.1 ESE 9 11 5 6 1014.4 1014.4 5.8
21/05:00am 3.8 0.6 3.1 95 0.3 ESE 9 11 5 6 1014.3 1014.3 5.8
21/04:30am 4.8 2.0 3.1 89 0.7 SE 7 15 4 8 1014.0 1014.0 5.8
21/04:00am 8.5 4.7 4.1 74 1.9 SSE 13 19 7 10 1013.7 1013.7 5.8
21/03:30am 7.2 2.0 3.6 78 1.5 S 20 33 11 18 1013.6 1013.6 5.8
21/03:00am 10.1 4.1 5.3 72 2.2 S 26 33 14 18 1013.4 1013.4 5.8
21/02:30am 9.7 5.1 5.5 75 1.9 S 19 30 10 16 1013.3 1013.3 5.8
21/02:00am 9.9 4.7 5.7 75 1.9 S 22 32 12 17 1013.2 1013.2 5.8
21/01:30am 10.2 5.6 6.4 77 1.8 S 20 33 11 18 1013.0 1013.0 5.8
21/01:00am 9.8 4.4 6.5 80 1.5 S 24 32 13 17 1012.9 1012.9 5.8
21/12:30am 9.4 4.3 7.5 88 0.9 S 24 35 13 19 1012.7 1012.7 5.8
21/12:00am 8.2 6.1 6.5 89 0.8 ESE 7 11 4 6 1012.3 1012.3 5.8
 
Date/Time
EST
Temp
°C
App
Temp
°C
Dew
Point
°C
Rel
Hum
%
Delta-T
°C
Wind Press
QNH
hPa
Press
MSL
hPa
Rain since
9am
mm
Dir  Spd
km/h
Gust
km/h
Spd
kts
Gust
kts
20/11:30pm 8.8 5.2 6.8 87 0.9 SSE 15 28 8 15 1011.9 1011.9 5.8
20/11:00pm 9.6 5.5 7.9 89 0.8 S 19 32 10 17 1012.1 1012.1 5.8
20/10:30pm 9.3 5.2 7.7 90 0.8 S 19 28 10 15 1012.2 1012.2 5.8
20/10:00pm 9.2 4.8 7.6 90 0.8 SSE 20 32 11 17 1012.3 1012.3 5.8
20/09:30pm 9.2 4.6 8.3 94 0.4 SSE 22 37 12 20 1011.9 1011.9 5.8
20/09:11pm 9.5 5.2 9.2 98 0.1 S 22 41 12 22 1011.5 1011.5 5.8
20/09:00pm 9.3 5.9 9.0 98 0.1 SSE 17 30 9 16 1011.4 1011.4 5.6
20/08:42pm 10.0 4.1 9.2 95 0.4 S 30 44 16 24 1011.0 1011.0 3.8
20/08:30pm 10.2 6.3 8.6 90 0.8 S 19 30 10 16 1010.8 1010.8 2.6
20/08:00pm 10.3 7.7 7.9 85 1.2 SE 11 20 6 11 1010.1 1010.1 2.0
20/07:30pm 9.8 6.8 7.9 88 0.9 SE 13 24 7 13 1009.5 1009.5 2.0
20/07:00pm 10.1 6.4 8.0 87 1.0 ESE 17 28 9 15 1009.0 1009.0 2.0
20/06:30pm 10.8 6.6 8.2 84 1.3 SE 20 33 11 18 1008.6 1008.6 2.0
20/06:00pm 13.2 8.8 9.1 76 2.1 SW 22 30 12 16 1007.8 1007.8 2.0
20/05:30pm 13.0 7.5 9.3 78 1.9 WSW 28 35 15 19 1006.8 1006.8 2.0
20/05:00pm 12.9 6.6 9.7 81 1.6 WSW 33 39 18 21 1006.3 1006.3 2.0
20/04:30pm 13.2 8.9 10.6 84 1.4 W 24 33 13 18 1006.3 1006.3 2.0
20/04:00pm 12.7 9.7 11.9 95 0.4 WNW 19 24 10 13 1006.3 1006.3 2.0
20/03:56pm 12.9 10.4 12.3 96 0.3 WNW 17 24 9 13 1006.3 1006.3 2.0
20/03:30pm 12.3 9.2 12.1 99 0.1 WNW 20 28 11 15 1006.3 1006.3 2.0
20/03:18pm 12.4 9.9 12.2 99 0.1 WNW 17 24 9 13 1006.5 1006.5 2.0
20/03:00pm 11.8 7.6 11.0 95 0.4 WNW 24 37 13 20 1006.3 1006.3 2.0
20/02:30pm 13.9 9.1 10.3 79 1.9 WNW 26 32 14 17 1006.2 1006.2 0.6
20/02:00pm 15.2 10.4 10.2 72 2.6 WNW 26 33 14 18 1005.9 1005.9 0.6
20/01:30pm 14.7 10.4 9.5 71 2.7 WNW 22 30 12 16 1006.0 1006.0 0.6
20/01:00pm 14.1 9.8 10.7 80 1.8 WNW 24 32 13 17 1006.2 1006.2 0.6
20/12:30pm 13.8 10.2 10.4 80 1.8 WNW 20 28 11 15 1006.6 1006.6 0.6
20/12:00pm 13.5 10.0 10.3 81 1.7 W 19 24 10 13 1006.8 1006.8 0.6
20/11:30am 12.9 9.7 11.1 89 0.9 WNW 19 28 10 15 1007.0 1007.0 0.6
20/11:00am 13.1 6.7 10.8 86 1.2 WSW 35 41 19 22 1006.9 1006.9 0.6
20/10:31am 13.0 6.5 11.7 92 0.7 WSW 37 46 20 25 1006.8 1006.8 0.6
20/10:30am 13.1 6.6 11.8 92 0.7 WSW 37 48 20 26 1006.8 1006.8 0.6
20/10:20am 13.0 6.1 11.7 92 0.7 WSW 39 50 21 27 1006.7 1006.7 0.4
20/10:03am 16.4 8.5 11.3 72 2.7 WNW 44 67 24 36 1006.2 1006.2 0.0
20/10:02am 17.6 9.7 11.4 67 3.4 NW 44 67 24 36 1006.2 1006.2 0.0
20/10:00am 17.9 10.3 11.7 67 3.4 NW 43 57 23 31 1006.0 1006.0 0.0
20/09:30am 17.3 9.6 11.6 69 3.1 NW 43 56 23 30 1006.2 1006.2 0.0
20/09:00am 17.1 10.1 11.4 69 3.1 NW 39 50 21 27 1006.6 1006.6 0.8
20/08:30am 17.0 10.5 11.7 71 2.9 NW 37 54 20 29 1007.0 1007.0 0.8
20/08:00am 16.6 10.0 11.5 72 2.8 NW 37 50 20 27 1007.0 1007.0 0.8
20/07:30am 16.4 10.7 11.1 71 2.8 NW 32 48 17 26 1006.8 1006.8 0.8
20/07:00am 16.3 10.8 11.9 75 2.4 NW 32 43 17 23 1006.7 1006.7 0.8
20/06:30am 16.1 10.4 11.9 76 2.3 NW 33 44 18 24 1006.8 1006.8 0.8
20/06:00am 16.1 10.0 11.9 76 2.3 NW 35 44 19 24 1006.9 1006.9 0.8
20/05:30am 16.4 10.1 12.2 76 2.3 WNW 37 52 20 28 1007.2 1007.2 0.8
20/05:00am 16.4 10.3 11.6 73 2.6 NW 35 48 19 26 1007.4 1007.4 0.8
20/04:30am 16.3 10.2 10.6 69 3.0 NW 33 56 18 30 1007.4 1007.4 0.8
20/04:27am 16.4 10.6 10.7 69 3.0 NW 32 50 17 27 1007.4 1007.4 0.8
20/04:00am 16.0 12.5 11.0 72 2.7 NW 20 30 11 16 1007.6 1007.6 0.8
20/03:30am 16.3 11.5 11.7 74 2.5 NW 28 37 15 20 1007.5 1007.5 0.8
20/03:00am 16.2 11.5 12.0 76 2.3 NW 28 39 15 21 1007.8 1007.8 0.8
20/02:30am 16.2 11.0 12.9 81 1.8 NW 32 39 17 21 1008.2 1008.2 0.8
20/02:00am 16.1 11.0 13.2 83 1.6 NW 32 39 17 21 1008.9 1008.9 0.8
20/01:30am 16.1 11.4 13.2 83 1.6 NW 30 41 16 22 1009.2 1009.2 0.8

Other formats

Comma delimited format used in spreadsheet applications
http://www.bom.gov.au/fwo/IDT60801/IDT60801.94980.axf

JavaScript Object Notation format (JSON) in row-major order
http://www.bom.gov.au/fwo/IDT60801/IDT60801.94980.json

Data quality

Most of these data are generated automatically and are frequently updated. Quality checks on data are not normally performed. It is possible for incorrect values to appear. Refer to information at About Latest Weather Observations and please check the disclaimer before using these data.